.
WxDataArchive / Data Records for 2015-01-07
2015-01-06 January 2015 2015-01-08

Data Records for Wednesday, 07 January 2015

Time	Temp	Chill	HIndex	Humid	Dewpt	 Wind 	HiWind	WindDir	Rain 	Barom
-----	----	-----	------	-----	-----	------	------	-------	-----	-----
00:00	9.2	9.2	9.2	70	1.4	2	4	248	0.00	30.231 
00:05	9.2	9.2	9.2	70	1.4	1	4	292	0.00	30.231 
00:10	9.2	9.2	9.2	70	1.4	2	4	270	0.00	30.231 
00:15	9.2	9.2	9.2	70	1.4	1	4	248	0.00	30.226 
00:20	9.2	9.2	9.2	70	1.4	1	4	248	0.00	30.226 
00:25	9.0	9.0	9.0	70	1.2	1	4	248	0.00	30.226 
00:30	9.0	9.0	9.0	70	1.2	2	4	248	0.00	30.227 
00:35	9.0	9.0	9.0	69	0.9	2	5	248	0.00	30.227 
00:40	9.2	9.2	9.2	70	1.4	1	4	248	0.00	30.227 
00:45	9.2	9.2	9.2	70	1.4	1	3	248	0.00	30.220 
00:50	9.2	9.2	9.2	70	1.4	2	3	248	0.00	30.220 
00:55	9.2	9.2	9.2	70	1.4	1	4	248	0.00	30.220 
01:00	9.2	9.2	9.2	70	1.4	2	5	248	0.00	30.213 
01:05	9.2	9.2	9.2	70	1.4	2	5	248	0.00	30.213 
01:10	9.2	9.2	9.2	70	1.4	2	6	248	0.00	30.213 
01:15	9.2	9.2	9.2	70	1.4	1	3	248	0.00	30.211 
01:20	9.3	9.3	9.3	70	1.5	1	3	248	0.00	30.211 
01:25	9.3	9.3	9.3	70	1.5	1	3	248	0.00	30.211 
01:30	9.3	9.3	9.3	71	1.8	1	3	248	0.00	30.213 
01:35	9.5	9.5	9.5	71	2.0	1	4	248	0.00	30.213 
01:40	9.5	9.5	9.5	71	2.0	2	3	248	0.00	30.213 
01:45	9.5	9.5	9.5	71	2.0	1	3	248	0.00	30.214 
01:50	9.5	9.5	9.5	70	1.7	2	4	270	0.00	30.214 
01:55	9.5	9.5	9.5	70	1.7	1	3	270	0.00	30.214 
02:00	9.5	9.5	9.5	70	1.7	1	3	270	0.00	30.213 
02:05	9.3	9.3	9.3	70	1.5	1	3	270	0.00	30.213 
02:10	9.3	9.3	9.3	71	1.8	2	5	270	0.00	30.213 
02:15	9.3	9.3	9.3	71	1.8	2	3	270	0.00	30.219 
02:20	9.2	9.2	9.2	71	1.7	1	3	270	0.00	30.219 
02:25	9.2	9.2	9.2	71	1.7	2	4	248	0.00	30.219 
02:30	9.2	9.2	9.2	71	1.7	1	4	248	0.00	30.224 
02:35	9.2	9.2	9.2	72	2.0	1	3	270	0.00	30.224 
02:40	9.2	9.2	9.2	72	2.0	1	3	270	0.00	30.224 
02:45	9.2	9.2	9.2	72	2.0	1	3	270	0.00	30.235 
02:50	9.0	9.0	9.0	72	1.8	1	3	270	0.00	30.235 
02:55	9.2	9.2	9.2	73	2.3	1	6	270	0.00	30.235 
03:00	9.2	9.2	9.2	73	2.3	1	3	270	0.00	30.241 
03:05	9.2	9.2	9.2	73	2.3	1	3	270	0.00	30.241 
03:10	9.2	9.2	9.2	73	2.3	1	4	270	0.00	30.241 
03:15	9.2	9.2	9.2	73	2.3	1	5	270	0.00	30.247 
03:20	9.3	9.3	9.3	73	2.4	1	3	292	0.00	30.247 
03:25	9.2	9.2	9.2	73	2.3	1	3	292	0.00	30.247 
03:30	9.2	9.2	9.2	73	2.3	1	3	292	0.00	30.249 
03:35	9.2	9.2	9.2	73	2.3	1	4	248	0.00	30.249 
03:40	9.2	9.2	9.2	73	2.3	1	3	248	0.00	30.249 
03:45	9.2	9.2	9.2	74	2.6	1	6	248	0.00	30.250 
03:50	9.2	9.2	9.2	74	2.6	1	3	248	0.00	30.250 
03:55	9.2	9.2	9.2	74	2.6	1	4	248	0.00	30.250 
04:00	9.2	9.2	9.2	74	2.6	2	5	248	0.00	30.258 
04:05	9.3	9.3	9.3	74	2.7	2	4	248	0.00	30.258 
04:10	9.3	9.3	9.3	74	2.7	2	4	248	0.00	30.258 
04:15	9.5	9.5	9.5	74	2.9	2	3	248	0.00	30.259 
04:20	9.7	9.7	9.7	74	3.1	2	5	248	0.00	30.259 
04:25	9.7	9.7	9.7	74	3.1	3	6	270	0.00	30.259 
04:30	9.9	9.9	9.9	74	3.3	2	5	270	0.00	30.260 
04:35	9.7	9.7	9.7	74	3.1	1	3	270	0.00	30.260 
04:40	9.7	9.7	9.7	74	3.1	1	4	270	0.00	30.260 
04:45	9.7	9.7	9.7	74	3.1	2	4	270	0.00	30.268 
04:50	9.7	9.7	9.7	74	3.1	2	3	270	0.00	30.268 
04:55	9.5	9.5	9.5	75	3.2	2	5	270	0.00	30.268 
05:00	9.5	9.5	9.5	75	3.2	1	3	270	0.00	30.279 
05:05	9.7	9.7	9.7	76	3.7	2	5	270	0.00	30.279 
05:10	9.7	9.7	9.7	77	4.0	2	4	270	0.00	30.279 
05:15	9.9	9.9	9.9	78	4.4	2	4	270	0.00	30.291 
05:20	9.7	9.7	9.7	79	4.5	2	4	270	0.00	30.291 
05:25	9.7	9.7	9.7	80	4.8	2	5	270	0.00	30.291 
05:30	9.9	9.9	9.9	80	5.0	1	3	270	0.00	30.300 
05:35	9.9	9.9	9.9	81	5.3	1	2	270	0.00	30.300 
05:40	9.9	9.9	9.9	81	5.3	1	3	270	0.00	30.300 
05:45	9.9	9.9	9.9	81	5.3	1	3	270	0.00	30.305 
05:50	9.9	9.9	9.9	82	5.5	2	4	270	0.00	30.305 
05:55	9.9	9.9	9.9	82	5.5	1	3	248	0.00	30.305 
06:00	9.9	9.9	9.9	82	5.5	1	4	248	0.00	30.314 
06:05	10.0	10.0	10.0	82	5.6	1	5	248	0.00	30.314 
06:10	10.0	10.0	10.0	81	5.4	2	9	338	0.00	30.314 
06:15	10.0	10.0	10.0	79	4.8	2	6	338	0.00	30.322 
06:20	9.9	9.9	9.9	77	4.2	2	4	315	0.00	30.322 
06:25	9.7	9.7	9.7	76	3.7	1	4	292	0.00	30.322 
06:30	9.7	9.7	9.7	75	3.4	1	4	338	0.00	30.336 
06:35	9.7	9.7	9.7	75	3.4	0	3	315	0.00	30.336 
06:40	9.7	9.7	9.7	74	3.1	1	7	270	0.00	30.336 
06:45	9.7	9.7	9.7	75	3.4	1	4	315	0.00	30.343 
06:50	9.7	9.7	9.7	75	3.4	1	6	270	0.00	30.343 
06:55	9.7	9.7	9.7	76	3.7	2	5	292	0.00	30.343 
07:00	9.7	9.7	9.7	76	3.7	2	5	292	0.00	30.352 
07:05	9.9	9.9	9.9	77	4.2	1	3	270	0.00	30.352 
07:10	9.7	9.7	9.7	77	4.0	1	4	270	0.00	30.352 
07:15	9.7	9.7	9.7	78	4.2	1	3	292	0.00	30.367 
07:20	9.7	9.7	9.7	78	4.2	2	4	292	0.00	30.367 
07:25	9.7	9.7	9.7	78	4.2	1	5	315	0.00	30.367 
07:30	9.7	9.7	9.7	79	4.5	2	4	292	0.00	30.379 
07:35	9.7	9.7	9.7	78	4.2	2	6	270	0.00	30.379 
07:40	9.5	9.5	9.5	76	3.5	1	4	292	0.00	30.379 
07:45	9.5	9.5	9.5	75	3.2	0	3	315	0.00	30.392 
07:50	9.7	9.7	9.7	74	3.1	1	4	315	0.00	30.392 
07:55	9.7	9.7	9.7	74	3.1	1	4	292	0.00	30.392 
08:00	9.7	9.7	9.7	75	3.4	1	4	22	0.00	30.401 
08:05	9.7	9.7	9.7	76	3.7	0	2	292	0.00	30.401 
08:10	9.5	9.5	9.5	76	3.5	0	1	292	0.00	30.401 
08:15	9.3	9.3	9.3	77	3.6	0	1	202	0.00	30.416 
08:20	9.2	9.2	9.2	77	3.5	0	3	315	0.00	30.416 
08:25	8.8	8.8	8.8	77	3.1	0	3	315	0.00	30.416 
08:30	8.6	8.6	8.6	76	2.6	2	6	338	0.00	30.423 
08:35	8.6	8.6	8.6	74	2.0	1	4	338	0.00	30.423 
08:40	8.4	8.4	8.4	73	1.6	2	7	292	0.00	30.423 
08:45	8.3	8.3	8.3	71	0.9	1	4	315	0.00	30.432 
08:50	8.3	8.3	8.3	70	0.6	1	3	0	0.00	30.432 
08:55	8.3	8.3	8.3	69	0.3	1	3	338	0.00	30.432 
09:00	8.3	8.3	8.3	68	-0.0	1	4	270	0.00	30.441 
09:05	8.4	8.4	8.4	67	-0.3	1	6	270	0.00	30.441 
09:10	8.6	8.6	8.6	65	-0.7	1	4	338	0.00	30.441 
09:15	8.8	8.8	8.8	65	-0.5	1	2	315	0.00	30.455 
09:20	9.0	9.0	9.0	64	-0.7	1	4	270	0.00	30.455 
09:25	9.0	9.0	9.0	63	-1.0	1	5	338	0.00	30.455 
09:30	9.0	9.0	9.0	62	-1.3	2	6	338	0.00	30.465 
09:35	8.8	8.8	8.8	62	-1.5	2	6	270	0.00	30.465 
09:40	8.8	8.8	8.8	62	-1.5	1	3	315	0.00	30.465 
09:45	9.0	9.0	9.0	61	-1.7	1	5	338	0.00	30.468 
09:50	9.2	9.2	9.2	62	-1.1	1	4	292	0.00	30.468 
09:55	9.2	9.2	9.2	61	-1.5	1	5	292	0.00	30.468 
10:00	9.3	9.3	9.3	60	-1.7	2	5	315	0.00	30.478 
10:05	9.7	9.7	9.7	59	-1.7	1	3	292	0.00	30.478 
10:10	10.0	10.0	10.0	59	-1.4	2	7	270	0.00	30.478 
10:15	10.0	10.0	10.0	58	-1.8	1	5	338	0.00	30.480 
10:20	9.9	9.9	9.9	59	-1.5	2	6	292	0.00	30.480 
10:25	9.5	9.5	9.5	62	-0.9	2	6	315	0.00	30.480 
10:30	9.3	9.3	9.3	63	-0.7	2	7	315	0.00	30.496 
10:35	9.3	9.3	9.3	62	-1.0	2	6	338	0.00	30.496 
10:40	9.7	9.7	9.7	62	-0.7	1	4	292	0.00	30.496 
10:45	10.0	10.0	10.0	62	-0.4	2	5	315	0.00	30.500 
10:50	10.0	10.0	10.0	61	-0.7	2	6	338	0.00	30.500 
10:55	10.0	10.0	10.0	61	-0.7	1	4	338	0.00	30.500 
11:00	10.2	10.2	10.2	61	-0.5	1	4	315	0.00	30.512 
11:05	10.0	10.0	10.0	62	-0.4	1	5	315	0.00	30.512 
11:10	9.9	9.9	9.9	63	-0.1	2	6	338	0.00	30.512 
11:15	9.7	9.7	9.7	62	-0.7	2	10	338	0.00	30.523 
11:20	9.3	9.3	9.3	61	-1.4	2	6	315	0.00	30.523 
11:25	9.5	9.5	9.5	60	-1.5	2	5	338	0.00	30.523 
11:30	9.5	9.5	9.5	61	-1.2	1	5	0	0.00	30.526 
11:35	9.7	9.7	9.7	61	-1.0	1	4	22	0.00	30.526 
11:40	9.9	9.9	9.9	61	-0.8	2	6	338	0.00	30.526 
11:45	9.5	9.5	9.5	60	-1.5	2	10	338	0.00	30.531 
11:50	9.5	9.5	9.5	58	-2.3	2	6	338	0.00	30.531 
11:55	9.9	9.9	9.9	58	-1.9	2	5	338	0.00	30.531 
12:00	10.0	10.0	10.0	57	-2.2	2	5	338	0.00	30.535 
12:05	10.5	10.5	10.5	56	-2.1	2	6	338	0.00	30.535 
12:10	10.5	10.5	10.5	55	-2.4	2	5	338	0.00	30.535 
12:15	10.2	2.9	10.2	54	-3.1	4	11	292	0.00	30.536 
12:20	10.0	10.0	10.0	53	-3.7	3	9	270	0.00	30.536 
12:25	10.0	10.0	10.0	51	-4.5	3	7	338	0.00	30.536 
12:30	10.4	10.4	10.4	50	-4.5	2	7	292	0.00	30.540 
12:35	10.5	10.5	10.5	49	-4.8	3	9	292	0.00	30.540 
12:40	10.5	10.5	10.5	48	-5.3	2	7	338	0.00	30.540 
12:45	10.9	10.9	10.9	48	-4.9	2	5	292	0.00	30.539 
12:50	11.1	11.1	11.1	47	-5.1	2	7	315	0.00	30.539 
12:55	11.2	11.2	11.2	47	-5.1	2	5	270	0.00	30.539 
13:00	11.7	11.7	11.7	47	-4.6	1	6	292	0.00	30.544 
13:05	11.9	11.9	11.9	47	-4.4	2	6	315	0.00	30.544 
13:10	11.9	11.9	11.9	46	-4.9	3	9	292	0.00	30.544 
13:15	11.4	11.4	11.4	46	-5.3	3	9	270	0.00	30.542 
13:20	11.4	11.4	11.4	47	-4.9	2	6	315	0.00	30.542 
13:25	11.7	11.7	11.7	46	-5.0	2	9	270	0.00	30.542 
13:30	11.9	11.9	11.9	46	-4.9	2	6	338	0.00	30.544 
13:35	11.7	11.7	11.7	45	-5.5	2	6	270	0.00	30.544 
13:40	11.7	11.7	11.7	46	-5.0	2	7	315	0.00	30.544 
13:45	11.7	11.7	11.7	48	-4.2	2	5	270	0.00	30.551 
13:50	11.7	11.7	11.7	49	-3.7	2	6	270	0.00	30.551 
13:55	11.7	11.7	11.7	49	-3.7	1	5	338	0.00	30.551 
14:00	11.9	11.9	11.9	48	-4.0	2	5	315	0.00	30.555 
14:05	11.6	11.6	11.6	48	-4.2	2	6	292	0.00	30.555 
14:10	11.4	11.4	11.4	44	-6.2	2	6	292	0.00	30.555 
14:15	11.4	11.4	11.4	42	-7.2	2	7	315	0.00	30.567 
14:20	11.2	11.2	11.2	41	-7.9	3	10	292	0.00	30.567 
14:25	11.1	11.1	11.1	43	-7.0	3	6	292	0.00	30.567 
14:30	10.9	10.9	10.9	42	-7.6	2	6	270	0.00	30.572 
14:35	11.1	11.1	11.1	42	-7.5	2	6	315	0.00	30.572 
14:40	11.1	11.1	11.1	41	-7.9	3	11	270	0.00	30.572 
14:45	10.9	10.9	10.9	43	-7.2	3	9	270	0.00	30.580 
14:50	10.7	10.7	10.7	43	-7.3	3	7	292	0.00	30.580 
14:55	10.7	10.7	10.7	44	-6.9	3	9	292	0.00	30.580 
15:00	10.7	10.7	10.7	43	-7.3	3	9	292	0.00	30.598 
15:05	10.5	10.5	10.5	45	-6.6	1	6	292	0.00	30.598 
15:10	10.4	10.4	10.4	46	-6.2	2	6	292	0.00	30.598 
15:15	10.4	10.4	10.4	48	-5.4	2	6	292	0.00	30.608 
15:20	10.5	10.5	10.5	49	-4.8	2	5	292	0.00	30.608 
15:25	10.7	10.7	10.7	51	-3.8	2	7	292	0.00	30.608 
15:30	10.7	10.7	10.7	53	-3.0	1	3	292	0.00	30.619 
15:35	10.7	10.7	10.7	54	-2.6	2	4	292	0.00	30.619 
15:40	10.5	10.5	10.5	55	-2.4	2	5	292	0.00	30.619 
15:45	10.4	10.4	10.4	54	-2.9	2	5	292	0.00	30.626 
15:50	10.4	10.4	10.4	54	-2.9	1	6	0	0.00	30.626 
15:55	10.5	10.5	10.5	53	-3.2	2	5	292	0.00	30.626 
16:00	10.5	10.5	10.5	53	-3.2	1	3	292	0.00	30.631 
16:05	10.5	10.5	10.5	53	-3.2	1	4	292	0.00	30.631 
16:10	10.5	10.5	10.5	53	-3.2	1	5	338	0.00	30.631 
16:15	10.4	10.4	10.4	52	-3.7	3	6	315	0.00	30.633 
16:20	10.5	10.5	10.5	53	-3.2	1	5	338	0.00	30.633 
16:25	10.5	10.5	10.5	53	-3.2	2	5	292	0.00	30.633 
16:30	10.5	10.5	10.5	54	-2.8	1	4	0	0.00	30.637 
16:35	10.5	10.5	10.5	54	-2.8	2	4	292	0.00	30.637 
16:40	10.4	10.4	10.4	55	-2.5	1	3	292	0.00	30.637 
16:45	10.2	10.2	10.2	56	-2.3	1	4	315	0.00	30.640 
16:50	10.2	10.2	10.2	56	-2.3	1	3	315	0.00	30.640 
16:55	10.2	10.2	10.2	56	-2.3	1	4	315	0.00	30.640 
17:00	10.0	10.0	10.0	57	-2.2	1	2	315	0.00	30.650 
17:05	9.9	9.9	9.9	54	-3.4	2	14	292	0.00	30.650 
17:10	9.5	9.5	9.5	53	-4.1	2	6	292	0.00	30.650 
17:15	9.3	9.3	9.3	53	-4.3	3	7	270	0.00	30.659 
17:20	9.2	9.2	9.2	53	-4.4	2	6	292	0.00	30.659 
17:25	9.0	9.0	9.0	54	-4.2	2	6	292	0.00	30.659 
17:30	8.8	8.8	8.8	55	-4.0	1	4	315	0.00	30.669 
17:35	8.6	8.6	8.6	56	-3.8	1	3	315	0.00	30.669 
17:40	8.4	8.4	8.4	57	-3.7	1	3	270	0.00	30.669 
17:45	8.3	8.3	8.3	58	-3.4	1	3	270	0.00	30.678 
17:50	8.1	8.1	8.1	58	-3.6	0	2	270	0.00	30.678 
17:55	7.7	7.7	7.7	59	-3.6	0	1	270	0.00	30.678 
18:00	7.6	7.6	7.6	60	-3.3	0	2	270	0.00	30.683 
18:05	7.4	7.4	7.4	61	-3.2	0	2	270	0.00	30.683 
18:10	7.0	7.0	7.0	62	-3.2	0	1	270	0.00	30.683 
18:15	7.0	7.0	7.0	63	-2.9	0	1	270	0.00	30.688 
18:20	7.0	7.0	7.0	65	-2.2	1	2	270	0.00	30.688 
18:25	7.0	7.0	7.0	66	-1.9	0	1	270	0.00	30.688 
18:30	7.2	7.2	7.2	69	-0.8	1	3	270	0.00	30.693 
18:35	7.2	7.2	7.2	70	-0.5	0	2	270	0.00	30.693 
18:40	7.4	7.4	7.4	71	0.0	0	2	270	0.00	30.693 
18:45	7.6	7.6	7.6	72	0.5	2	5	270	0.00	30.689 
18:50	7.6	7.6	7.6	72	0.5	2	5	270	0.00	30.689 
18:55	7.6	7.6	7.6	71	0.2	2	4	270	0.00	30.689 
19:00	7.6	7.6	7.6	71	0.2	3	5	270	0.00	30.696 
19:05	7.4	7.4	7.4	71	0.0	2	4	270	0.00	30.696 
19:10	7.4	7.4	7.4	72	0.3	1	3	270	0.00	30.696 
19:15	7.4	7.4	7.4	72	0.3	2	5	270	0.00	30.696 
19:20	7.2	7.2	7.2	72	0.1	2	5	270	0.00	30.696 
19:25	6.9	6.9	6.9	71	-0.5	2	5	292	0.00	30.696 
19:30	6.7	6.7	6.7	71	-0.7	3	6	270	0.00	30.702 
19:35	6.3	6.3	6.3	71	-1.1	3	6	270	0.00	30.702 
19:40	6.0	6.0	6.0	70	-1.6	2	4	270	0.00	30.702 
19:45	5.8	5.8	5.8	70	-1.8	2	4	270	0.00	30.704 
19:50	5.4	5.4	5.4	70	-2.2	3	7	270	0.00	30.704 
19:55	5.0	5.0	5.0	70	-2.6	3	9	270	0.00	30.704 
20:00	4.8	4.8	4.8	70	-2.8	2	3	292	0.00	30.708 
20:05	4.7	4.7	4.7	71	-2.6	2	5	248	0.00	30.708 
20:10	4.5	4.5	4.5	71	-2.8	2	6	270	0.00	30.708 
20:15	4.5	4.5	4.5	71	-2.8	2	5	270	0.00	30.710 
20:20	4.3	4.3	4.3	71	-3.0	2	5	270	0.00	30.710 
20:25	4.1	4.1	4.1	71	-3.2	2	5	270	0.00	30.710 
20:30	3.9	3.9	3.9	70	-3.7	2	3	270	0.00	30.716 
20:35	3.7	3.7	3.7	70	-3.9	1	3	270	0.00	30.716 
20:40	3.5	3.5	3.5	70	-4.1	1	3	270	0.00	30.716 
20:45	3.2	3.2	3.2	70	-4.3	2	4	270	0.00	30.718 
20:50	2.8	2.8	2.8	70	-4.7	2	5	270	0.00	30.718 
20:55	2.4	2.4	2.4	69	-5.4	1	4	248	0.00	30.718 
21:00	2.2	2.2	2.2	69	-5.6	1	4	248	0.00	30.714 
21:05	2.0	2.0	2.0	69	-5.8	2	5	248	0.00	30.714 
21:10	1.8	1.8	1.8	68	-6.3	2	5	270	0.00	30.714 
21:15	1.7	1.7	1.7	67	-6.7	2	4	270	0.00	30.715 
21:20	1.5	1.5	1.5	66	-7.2	1	3	270	0.00	30.715 
21:25	1.5	1.5	1.5	66	-7.2	1	4	292	0.00	30.715 
21:30	1.3	1.3	1.3	65	-7.7	1	3	270	0.00	30.715 
21:35	1.1	1.1	1.1	65	-7.9	1	3	270	0.00	30.715 
21:40	0.9	0.9	0.9	64	-8.4	1	3	270	0.00	30.715 
21:45	0.9	0.9	0.9	64	-8.4	1	3	270	0.00	30.711 
21:50	0.7	0.7	0.7	63	-8.9	1	3	270	0.00	30.711 
21:55	0.5	0.5	0.5	63	-9.1	1	4	270	0.00	30.711 
22:00	0.3	0.3	0.3	62	-9.6	1	4	270	0.00	30.714 
22:05	0.3	0.3	0.3	62	-9.6	1	3	270	0.00	30.714 
22:10	0.1	0.1	0.1	62	-9.8	1	3	270	0.00	30.714 
22:15	0.0	0.0	0.0	61	-10.2	1	3	270	0.00	30.712 
22:20	0.0	0.0	0.0	61	-10.2	1	3	270	0.00	30.712 
22:25	-0.2	-0.2	-0.2	60	-10.7	2	4	270	0.00	30.712 
22:30	-0.4	-0.4	-0.4	60	-10.9	1	3	270	0.00	30.709 
22:35	-0.4	-0.4	-0.4	60	-10.9	1	3	270	0.00	30.709 
22:40	-0.4	-0.4	-0.4	59	-11.3	1	4	248	0.00	30.709 
22:45	-0.6	-0.6	-0.6	59	-11.4	1	4	248	0.00	30.710 
22:50	-0.6	-0.6	-0.6	59	-11.4	2	5	270	0.00	30.710 
22:55	-0.8	-0.8	-0.8	59	-11.6	1	3	292	0.00	30.710 
23:00	-1.0	-1.0	-1.0	59	-11.8	1	4	292	0.00	30.705 
23:05	-1.0	-1.0	-1.0	59	-11.8	1	5	248	0.00	30.705 
23:10	-1.2	-1.2	-1.2	59	-12.0	1	3	270	0.00	30.705 
23:15	-1.2	-1.2	-1.2	59	-12.0	1	3	270	0.00	30.696 
23:20	-1.4	-1.4	-1.4	59	-12.2	1	2	270	0.00	30.696 
23:25	-1.4	-1.4	-1.4	59	-12.2	1	4	248	0.00	30.696 
23:30	-1.6	-1.6	-1.6	59	-12.4	1	2	248	0.00	30.689 
23:35	-1.8	-1.8	-1.8	59	-12.6	0	3	248	0.00	30.689 
23:40	-1.8	-1.8	-1.8	59	-12.6	0	2	248	0.00	30.689 
23:45	-2.0	-2.0	-2.0	59	-12.8	1	3	248	0.00	30.682 
23:50	-2.0	-2.0	-2.0	59	-12.8	1	3	248	0.00	30.682 
23:55	-2.2	-2.2	-2.2	59	-13.0	1	3	248	0.00	30.682 

CoCoRaHS
IN-AL-39
A2 Web Hosting
Creative Commons License
GoDaddy
search engine by freefind advanced

loaded 2018-11-17 11:53:39 • last modified 2010-11-18 10:43:29
Privacy PolicyDisclaimer
• wx.awcolley.com is powered by PmWiki v.2002016 •
• all content (unless otherwise noted) © 2018 A W Colley